Largo, Maryland
Current Conditions -  °F | °C
As of 6:55 AM on Thursday 29 Jan 2015 (Local Time) from KADW Reporting Station
Clear Clear  
Wind Chill: 18°   Ceiling: Unl
Heat Index: 18°   Visibility: 10mi
Dew Point: 13°   Wind: 0mph
Humidity: 82%   Direction: NA
Pressure: 30.32"   Gusts: NA
Location:  38.8158°N, 76.75°W
Report Text: KADW 291155Z 00000KT 10SM CLR M08/M10 A3032 RMK AO2A SLP274 T10781104 11039 21078 55000 $
Loading
Personal Weather Stations






























Interactive Weather Map New forecast layout! Learn more

10-Day Weather Forecast

Advertisements
Track Severe Weather on mobile